sensor_id;sensor_type;location;lat;lon;timestamp;temperature;humidity
67054;SHT31;53960;51.826;5.850;2024-03-06T00:01:48;7.38;97.26
67054;SHT31;53960;51.826;5.850;2024-03-06T00:04:14;7.35;97.19
67054;SHT31;53960;51.826;5.850;2024-03-06T00:06:39;7.28;97.30
67054;SHT31;53960;51.826;5.850;2024-03-06T00:09:04;7.27;97.30
67054;SHT31;53960;51.826;5.850;2024-03-06T00:11:30;7.21;97.15
67054;SHT31;53960;51.826;5.850;2024-03-06T00:13:55;7.20;96.79
67054;SHT31;53960;51.826;5.850;2024-03-06T00:16:20;7.13;96.87
67054;SHT31;53960;51.826;5.850;2024-03-06T00:18:46;7.10;96.99
67054;SHT31;53960;51.826;5.850;2024-03-06T00:21:11;7.06;97.01
67054;SHT31;53960;51.826;5.850;2024-03-06T00:23:37;6.97;97.00
67054;SHT31;53960;51.826;5.850;2024-03-06T00:26:03;6.99;96.87
67054;SHT31;53960;51.826;5.850;2024-03-06T00:28:29;6.93;96.71
67054;SHT31;53960;51.826;5.850;2024-03-06T00:30:55;6.92;96.71
67054;SHT31;53960;51.826;5.850;2024-03-06T00:33:20;6.83;96.77
67054;SHT31;53960;51.826;5.850;2024-03-06T00:35:46;6.80;96.61
67054;SHT31;53960;51.826;5.850;2024-03-06T00:38:11;6.68;96.46
67054;SHT31;53960;51.826;5.850;2024-03-06T00:40:37;6.72;96.50
67054;SHT31;53960;51.826;5.850;2024-03-06T00:43:02;6.72;96.17
67054;SHT31;53960;51.826;5.850;2024-03-06T00:45:27;6.69;96.37
67054;SHT31;53960;51.826;5.850;2024-03-06T00:47:53;6.59;96.61
67054;SHT31;53960;51.826;5.850;2024-03-06T00:50:18;6.56;96.40
67054;SHT31;53960;51.826;5.850;2024-03-06T00:52:46;6.56;96.37
67054;SHT31;53960;51.826;5.850;2024-03-06T00:55:11;6.38;96.54
67054;SHT31;53960;51.826;5.850;2024-03-06T00:57:36;6.37;96.67
67054;SHT31;53960;51.826;5.850;2024-03-06T01:00:05;6.35;96.65
67054;SHT31;53960;51.826;5.850;2024-03-06T01:02:36;6.42;96.02
67054;SHT31;53960;51.826;5.850;2024-03-06T01:05:02;6.29;96.02
67054;SHT31;53960;51.826;5.850;2024-03-06T01:07:29;6.21;96.57
67054;SHT31;53960;51.826;5.850;2024-03-06T01:09:55;6.18;96.66
67054;SHT31;53960;51.826;5.850;2024-03-06T01:12:23;6.21;96.44
67054;SHT31;53960;51.826;5.850;2024-03-06T01:14:48;6.18;96.32
67054;SHT31;53960;51.826;5.850;2024-03-06T01:17:13;6.18;96.43
67054;SHT31;53960;51.826;5.850;2024-03-06T01:19:38;6.16;95.97
67054;SHT31;53960;51.826;5.850;2024-03-06T01:22:04;6.00;96.14
67054;SHT31;53960;51.826;5.850;2024-03-06T01:24:29;6.04;96.22
67054;SHT31;53960;51.826;5.850;2024-03-06T01:26:54;6.07;96.01
67054;SHT31;53960;51.826;5.850;2024-03-06T01:29:20;5.96;96.12
67054;SHT31;53960;51.826;5.850;2024-03-06T01:31:45;5.90;96.13
67054;SHT31;53960;51.826;5.850;2024-03-06T01:34:12;5.93;96.01
67054;SHT31;53960;51.826;5.850;2024-03-06T01:36:37;5.93;95.81
67054;SHT31;53960;51.826;5.850;2024-03-06T01:39:02;5.93;95.69
67054;SHT31;53960;51.826;5.850;2024-03-06T01:41:28;5.96;95.67
67054;SHT31;53960;51.826;5.850;2024-03-06T01:43:53;5.97;95.50
67054;SHT31;53960;51.826;5.850;2024-03-06T01:46:18;5.90;95.65
67054;SHT31;53960;51.826;5.850;2024-03-06T01:48:44;5.85;95.60
67054;SHT31;53960;51.826;5.850;2024-03-06T01:51:10;5.87;95.56
67054;SHT31;53960;51.826;5.850;2024-03-06T01:53:36;5.85;95.44
67054;SHT31;53960;51.826;5.850;2024-03-06T01:56:03;5.83;95.25
67054;SHT31;53960;51.826;5.850;2024-03-06T01:58:29;5.83;95.18
67054;SHT31;53960;51.826;5.850;2024-03-06T02:00:56;5.73;95.20
67054;SHT31;53960;51.826;5.850;2024-03-06T02:03:24;5.73;95.23
67054;SHT31;53960;51.826;5.850;2024-03-06T02:05:50;5.69;95.25
67054;SHT31;53960;51.826;5.850;2024-03-06T02:08:16;5.67;95.31
67054;SHT31;53960;51.826;5.850;2024-03-06T02:10:44;5.65;95.29
67054;SHT31;53960;51.826;5.850;2024-03-06T02:13:09;5.63;95.38
67054;SHT31;53960;51.826;5.850;2024-03-06T02:15:35;5.65;95.14
67054;SHT31;53960;51.826;5.850;2024-03-06T02:18:04;5.59;94.99
67054;SHT31;53960;51.826;5.850;2024-03-06T02:20:30;5.50;94.99
67054;SHT31;53960;51.826;5.850;2024-03-06T02:22:55;5.52;95.13
67054;SHT31;53960;51.826;5.850;2024-03-06T02:25:21;5.48;95.18
67054;SHT31;53960;51.826;5.850;2024-03-06T02:27:46;5.43;95.27
67054;SHT31;53960;51.826;5.850;2024-03-06T02:30:13;5.48;95.26
67054;SHT31;53960;51.826;5.850;2024-03-06T02:32:38;5.40;95.01
67054;SHT31;53960;51.826;5.850;2024-03-06T02:35:04;5.35;95.22
67054;SHT31;53960;51.826;5.850;2024-03-06T02:37:33;5.32;95.15
67054;SHT31;53960;51.826;5.850;2024-03-06T02:39:59;5.32;95.20
67054;SHT31;53960;51.826;5.850;2024-03-06T02:42:25;5.32;95.08
67054;SHT31;53960;51.826;5.850;2024-03-06T02:44:51;5.17;95.36
67054;SHT31;53960;51.826;5.850;2024-03-06T02:47:16;5.25;95.20
67054;SHT31;53960;51.826;5.850;2024-03-06T02:49:41;5.25;95.05
67054;SHT31;53960;51.826;5.850;2024-03-06T02:52:07;5.21;94.99
67054;SHT31;53960;51.826;5.850;2024-03-06T02:54:32;5.24;95.13
67054;SHT31;53960;51.826;5.850;2024-03-06T02:56:57;5.17;94.92
67054;SHT31;53960;51.826;5.850;2024-03-06T02:59:22;5.17;94.78
67054;SHT31;53960;51.826;5.850;2024-03-06T03:01:49;5.18;94.72
67054;SHT31;53960;51.826;5.850;2024-03-06T03:04:14;5.21;94.59
67054;SHT31;53960;51.826;5.850;2024-03-06T03:06:39;5.14;94.72
67054;SHT31;53960;51.826;5.850;2024-03-06T03:09:05;5.08;94.89
67054;SHT31;53960;51.826;5.850;2024-03-06T03:11:30;5.01;95.15
67054;SHT31;53960;51.826;5.850;2024-03-06T03:13:57;5.01;95.20
67054;SHT31;53960;51.826;5.850;2024-03-06T03:16:22;5.01;94.78
67054;SHT31;53960;51.826;5.850;2024-03-06T03:18:48;4.91;94.86
67054;SHT31;53960;51.826;5.850;2024-03-06T03:21:14;4.94;94.99
67054;SHT31;53960;51.826;5.850;2024-03-06T03:23:39;4.84;94.76
67054;SHT31;53960;51.826;5.850;2024-03-06T03:26:07;4.78;95.16
67054;SHT31;53960;51.826;5.850;2024-03-06T03:28:32;4.80;95.05
67054;SHT31;53960;51.826;5.850;2024-03-06T03:30:58;4.68;95.02
67054;SHT31;53960;51.826;5.850;2024-03-06T03:33:23;4.71;95.32
67054;SHT31;53960;51.826;5.850;2024-03-06T03:35:49;4.77;95.02
67054;SHT31;53960;51.826;5.850;2024-03-06T03:38:14;4.78;95.06
67054;SHT31;53960;51.826;5.850;2024-03-06T03:40:39;4.76;94.99
67054;SHT31;53960;51.826;5.850;2024-03-06T03:43:05;4.67;94.97
67054;SHT31;53960;51.826;5.850;2024-03-06T03:45:32;4.74;94.88
67054;SHT31;53960;51.826;5.850;2024-03-06T03:48:00;4.81;94.64
67054;SHT31;53960;51.826;5.850;2024-03-06T03:50:25;4.80;94.61
67054;SHT31;53960;51.826;5.850;2024-03-06T03:52:51;4.73;94.76
67054;SHT31;53960;51.826;5.850;2024-03-06T03:55:16;4.57;95.39
67054;SHT31;53960;51.826;5.850;2024-03-06T03:57:41;4.64;95.15
67054;SHT31;53960;51.826;5.850;2024-03-06T04:00:07;4.60;95.06
67054;SHT31;53960;51.826;5.850;2024-03-06T04:02:36;4.61;95.37
67054;SHT31;53960;51.826;5.850;2024-03-06T04:05:02;4.56;95.33
67054;SHT31;53960;51.826;5.850;2024-03-06T04:07:27;4.56;95.46
67054;SHT31;53960;51.826;5.850;2024-03-06T04:09:53;4.53;95.55
67054;SHT31;53960;51.826;5.850;2024-03-06T04:12:18;4.57;95.25
67054;SHT31;53960;51.826;5.850;2024-03-06T04:14:43;4.49;95.45
67054;SHT31;53960;51.826;5.850;2024-03-06T04:17:09;4.46;95.28
67054;SHT31;53960;51.826;5.850;2024-03-06T04:19:34;4.40;95.30
67054;SHT31;53960;51.826;5.850;2024-03-06T04:21:59;4.53;95.00
67054;SHT31;53960;51.826;5.850;2024-03-06T04:24:25;4.45;94.87
67054;SHT31;53960;51.826;5.850;2024-03-06T04:26:50;4.42;95.02
67054;SHT31;53960;51.826;5.850;2024-03-06T04:29:15;4.49;95.01
67054;SHT31;53960;51.826;5.850;2024-03-06T04:31:41;4.50;94.75
67054;SHT31;53960;51.826;5.850;2024-03-06T04:34:06;4.36;94.87
67054;SHT31;53960;51.826;5.850;2024-03-06T04:36:31;4.35;95.14
67054;SHT31;53960;51.826;5.850;2024-03-06T04:38:57;4.40;94.78
67054;SHT31;53960;51.826;5.850;2024-03-06T04:41:22;4.38;94.71
67054;SHT31;53960;51.826;5.850;2024-03-06T04:43:48;4.40;94.62
67054;SHT31;53960;51.826;5.850;2024-03-06T04:46:15;4.33;94.72
67054;SHT31;53960;51.826;5.850;2024-03-06T04:48:41;4.33;94.65
67054;SHT31;53960;51.826;5.850;2024-03-06T04:51:06;4.33;94.83
67054;SHT31;53960;51.826;5.850;2024-03-06T04:53:31;4.39;94.51
67054;SHT31;53960;51.826;5.850;2024-03-06T04:55:57;4.36;94.16
67054;SHT31;53960;51.826;5.850;2024-03-06T04:58:22;4.25;94.32
67054;SHT31;53960;51.826;5.850;2024-03-06T05:00:47;4.28;94.54
67054;SHT31;53960;51.826;5.850;2024-03-06T05:03:13;4.30;94.19
67054;SHT31;53960;51.826;5.850;2024-03-06T05:05:38;4.25;94.23
67054;SHT31;53960;51.826;5.850;2024-03-06T05:08:05;4.26;94.45
67054;SHT31;53960;51.826;5.850;2024-03-06T05:10:32;4.25;94.15
67054;SHT31;53960;51.826;5.850;2024-03-06T05:12:57;4.20;94.31
67054;SHT31;53960;51.826;5.850;2024-03-06T05:15:22;4.26;94.25
67054;SHT31;53960;51.826;5.850;2024-03-06T05:17:48;4.25;94.04
67054;SHT31;53960;51.826;5.850;2024-03-06T05:20:13;4.13;94.06
67054;SHT31;53960;51.826;5.850;2024-03-06T05:22:39;4.15;94.27
67054;SHT31;53960;51.826;5.850;2024-03-06T05:25:04;4.01;94.45
67054;SHT31;53960;51.826;5.850;2024-03-06T05:27:30;4.03;94.64
67054;SHT31;53960;51.826;5.850;2024-03-06T05:29:57;4.01;94.36
67054;SHT31;53960;51.826;5.850;2024-03-06T05:32:23;3.99;94.31
67054;SHT31;53960;51.826;5.850;2024-03-06T05:34:49;3.97;94.07
67054;SHT31;53960;51.826;5.850;2024-03-06T05:37:14;3.97;94.00
67054;SHT31;53960;51.826;5.850;2024-03-06T05:39:39;3.92;94.12
67054;SHT31;53960;51.826;5.850;2024-03-06T05:42:06;3.92;94.08
67054;SHT31;53960;51.826;5.850;2024-03-06T05:44:32;3.94;93.97
67054;SHT31;53960;51.826;5.850;2024-03-06T05:47:02;3.88;93.76
67054;SHT31;53960;51.826;5.850;2024-03-06T05:49:28;3.81;93.98
67054;SHT31;53960;51.826;5.850;2024-03-06T05:51:53;3.84;94.01
67054;SHT31;53960;51.826;5.850;2024-03-06T05:54:22;3.88;93.92
67054;SHT31;53960;51.826;5.850;2024-03-06T05:56:49;3.87;93.74
67054;SHT31;53960;51.826;5.850;2024-03-06T05:59:15;3.82;93.62
67054;SHT31;53960;51.826;5.850;2024-03-06T06:01:41;3.82;93.75
67054;SHT31;53960;51.826;5.850;2024-03-06T06:04:08;3.82;93.68
67054;SHT31;53960;51.826;5.850;2024-03-06T06:06:34;3.81;93.72
67054;SHT31;53960;51.826;5.850;2024-03-06T06:09:00;3.71;93.85
67054;SHT31;53960;51.826;5.850;2024-03-06T06:11:25;3.68;94.31
67054;SHT31;53960;51.826;5.850;2024-03-06T06:13:50;3.75;94.30
67054;SHT31;53960;51.826;5.850;2024-03-06T06:16:16;3.82;94.02
67054;SHT31;53960;51.826;5.850;2024-03-06T06:18:42;3.74;94.43
67054;SHT31;53960;51.826;5.850;2024-03-06T06:21:08;3.75;95.00
67054;SHT31;53960;51.826;5.850;2024-03-06T06:23:34;3.73;95.63
67054;SHT31;53960;51.826;5.850;2024-03-06T06:25:59;3.79;95.46
67054;SHT31;53960;51.826;5.850;2024-03-06T06:28:24;3.87;95.61
67054;SHT31;53960;51.826;5.850;2024-03-06T06:30:50;3.79;96.33
67054;SHT31;53960;51.826;5.850;2024-03-06T06:33:20;3.81;97.18
67054;SHT31;53960;51.826;5.850;2024-03-06T06:35:46;3.95;97.68
67054;SHT31;53960;51.826;5.850;2024-03-06T06:38:12;3.99;97.98
67054;SHT31;53960;51.826;5.850;2024-03-06T06:40:37;4.06;98.57
67054;SHT31;53960;51.826;5.850;2024-03-06T06:43:02;4.20;98.87
67054;SHT31;53960;51.826;5.850;2024-03-06T06:45:28;4.35;99.00
67054;SHT31;53960;51.826;5.850;2024-03-06T06:47:53;4.33;99.28
67054;SHT31;53960;51.826;5.850;2024-03-06T06:50:19;4.40;99.74
67054;SHT31;53960;51.826;5.850;2024-03-06T06:52:47;4.54;99.73
67054;SHT31;53960;51.826;5.850;2024-03-06T06:55:12;4.68;99.34
67054;SHT31;53960;51.826;5.850;2024-03-06T06:57:38;4.71;99.52
67054;SHT31;53960;51.826;5.850;2024-03-06T07:00:04;4.78;99.69
67054;SHT31;53960;51.826;5.850;2024-03-06T07:02:40;4.84;99.68
67054;SHT31;53960;51.826;5.850;2024-03-06T07:05:06;4.90;99.85
67054;SHT31;53960;51.826;5.850;2024-03-06T07:07:33;4.95;99.80
67054;SHT31;53960;51.826;5.850;2024-03-06T07:09:59;5.05;99.79
67054;SHT31;53960;51.826;5.850;2024-03-06T07:12:24;5.08;99.99
67054;SHT31;53960;51.826;5.850;2024-03-06T07:14:50;5.18;99.99
67054;SHT31;53960;51.826;5.850;2024-03-06T07:17:15;5.24;99.99
67054;SHT31;53960;51.826;5.850;2024-03-06T07:19:40;5.31;99.99
67054;SHT31;53960;51.826;5.850;2024-03-06T07:22:06;5.38;99.99
67054;SHT31;53960;51.826;5.850;2024-03-06T07:24:31;5.45;99.99
67054;SHT31;53960;51.826;5.850;2024-03-06T07:26:56;5.50;99.99
67054;SHT31;53960;51.826;5.850;2024-03-06T07:29:22;5.52;99.99
67054;SHT31;53960;51.826;5.850;2024-03-06T07:31:47;5.59;99.99
67054;SHT31;53960;51.826;5.850;2024-03-06T07:34:13;5.56;99.99
67054;SHT31;53960;51.826;5.850;2024-03-06T07:36:40;5.66;99.99
67054;SHT31;53960;51.826;5.850;2024-03-06T07:39:05;5.71;99.99
67054;SHT31;53960;51.826;5.850;2024-03-06T07:41:30;5.73;99.99
67054;SHT31;53960;51.826;5.850;2024-03-06T07:43:58;5.80;99.99
67054;SHT31;53960;51.826;5.850;2024-03-06T07:46:24;5.79;99.99
67054;SHT31;53960;51.826;5.850;2024-03-06T07:48:49;5.79;99.99
67054;SHT31;53960;51.826;5.850;2024-03-06T07:51:16;5.89;99.99
67054;SHT31;53960;51.826;5.850;2024-03-06T07:53:41;5.87;99.99
67054;SHT31;53960;51.826;5.850;2024-03-06T07:56:10;5.94;99.99
67054;SHT31;53960;51.826;5.850;2024-03-06T07:58:36;6.03;99.99
67054;SHT31;53960;51.826;5.850;2024-03-06T08:01:02;6.07;99.99
67054;SHT31;53960;51.826;5.850;2024-03-06T08:03:28;6.20;99.99
67054;SHT31;53960;51.826;5.850;2024-03-06T08:05:53;6.18;99.99
67054;SHT31;53960;51.826;5.850;2024-03-06T08:08:19;6.24;99.99
67054;SHT31;53960;51.826;5.850;2024-03-06T08:10:44;6.34;99.98
67054;SHT31;53960;51.826;5.850;2024-03-06T08:13:10;6.34;99.76
67054;SHT31;53960;51.826;5.850;2024-03-06T08:15:35;6.35;99.74
67054;SHT31;53960;51.826;5.850;2024-03-06T08:18:01;6.38;99.79
67054;SHT31;53960;51.826;5.850;2024-03-06T08:20:28;6.42;99.61
67054;SHT31;53960;51.826;5.850;2024-03-06T08:22:55;6.37;99.78
67054;SHT31;53960;51.826;5.850;2024-03-06T08:25:22;6.38;99.80
67054;SHT31;53960;51.826;5.850;2024-03-06T08:27:48;6.38;99.80
67054;SHT31;53960;51.826;5.850;2024-03-06T08:30:13;6.37;99.99
67054;SHT31;53960;51.826;5.850;2024-03-06T08:32:38;6.48;99.94
67054;SHT31;53960;51.826;5.850;2024-03-06T08:35:05;6.53;99.99
67054;SHT31;53960;51.826;5.850;2024-03-06T08:37:32;6.61;99.86
67054;SHT31;53960;51.826;5.850;2024-03-06T08:39:59;6.61;99.86
67054;SHT31;53960;51.826;5.850;2024-03-06T08:42:24;6.68;99.58
67054;SHT31;53960;51.826;5.850;2024-03-06T08:44:50;6.68;99.71
67054;SHT31;53960;51.826;5.850;2024-03-06T08:47:16;6.75;99.69
67054;SHT31;53960;51.826;5.850;2024-03-06T08:49:41;6.79;99.81
67054;SHT31;53960;51.826;5.850;2024-03-06T08:52:06;6.85;99.72
67054;SHT31;53960;51.826;5.850;2024-03-06T08:54:32;6.90;99.54
67054;SHT31;53960;51.826;5.850;2024-03-06T08:56:57;6.92;99.54
67054;SHT31;53960;51.826;5.850;2024-03-06T08:59:23;6.99;99.64
67054;SHT31;53960;51.826;5.850;2024-03-06T09:01:52;6.99;99.59
67054;SHT31;53960;51.826;5.850;2024-03-06T09:04:17;7.13;99.58
67054;SHT31;53960;51.826;5.850;2024-03-06T09:06:43;7.14;99.16
67054;SHT31;53960;51.826;5.850;2024-03-06T09:09:08;7.16;98.96
67054;SHT31;53960;51.826;5.850;2024-03-06T09:11:34;7.18;99.16
67054;SHT31;53960;51.826;5.850;2024-03-06T09:13:59;7.20;98.97
67054;SHT31;53960;51.826;5.850;2024-03-06T09:16:25;7.24;98.69
67054;SHT31;53960;51.826;5.850;2024-03-06T09:18:50;7.28;98.90
67054;SHT31;53960;51.826;5.850;2024-03-06T09:21:16;7.38;99.22
67054;SHT31;53960;51.826;5.850;2024-03-06T09:23:41;7.45;98.98
67054;SHT31;53960;51.826;5.850;2024-03-06T09:26:07;7.48;98.78
67054;SHT31;53960;51.826;5.850;2024-03-06T09:28:32;7.50;98.62
67054;SHT31;53960;51.826;5.850;2024-03-06T09:30:57;7.52;98.85
67054;SHT31;53960;51.826;5.850;2024-03-06T09:33:23;7.58;99.03
67054;SHT31;53960;51.826;5.850;2024-03-06T09:35:48;7.59;98.57
67054;SHT31;53960;51.826;5.850;2024-03-06T09:38:13;7.71;98.47
67054;SHT31;53960;51.826;5.850;2024-03-06T09:40:39;7.74;98.57
67054;SHT31;53960;51.826;5.850;2024-03-06T09:43:07;7.82;98.35
67054;SHT31;53960;51.826;5.850;2024-03-06T09:45:34;7.81;98.38
67054;SHT31;53960;51.826;5.850;2024-03-06T09:48:00;7.90;98.46
67054;SHT31;53960;51.826;5.850;2024-03-06T09:50:27;7.96;98.24
67054;SHT31;53960;51.826;5.850;2024-03-06T09:52:55;8.00;98.24
67054;SHT31;53960;51.826;5.850;2024-03-06T09:55:21;8.09;98.09
67054;SHT31;53960;51.826;5.850;2024-03-06T09:57:46;8.12;97.85
67054;SHT31;53960;51.826;5.850;2024-03-06T10:00:12;8.25;97.79
67054;SHT31;53960;51.826;5.850;2024-03-06T10:02:38;8.40;98.00
67054;SHT31;53960;51.826;5.850;2024-03-06T10:05:04;8.40;97.87
67054;SHT31;53960;51.826;5.850;2024-03-06T10:07:31;8.43;97.44
67054;SHT31;53960;51.826;5.850;2024-03-06T10:09:56;8.46;97.66
67054;SHT31;53960;51.826;5.850;2024-03-06T10:12:22;8.55;97.34
67054;SHT31;53960;51.826;5.850;2024-03-06T10:14:52;8.47;97.62
67054;SHT31;53960;51.826;5.850;2024-03-06T10:17:21;8.48;97.39
67054;SHT31;53960;51.826;5.850;2024-03-06T10:19:52;8.60;97.32
67054;SHT31;53960;51.826;5.850;2024-03-06T10:22:20;8.67;96.83
67054;SHT31;53960;51.826;5.850;2024-03-06T10:24:46;8.81;96.69
67054;SHT31;53960;51.826;5.850;2024-03-06T10:27:15;8.92;96.30
67054;SHT31;53960;51.826;5.850;2024-03-06T10:29:43;9.11;96.27
67054;SHT31;53960;51.826;5.850;2024-03-06T10:32:09;9.19;96.11
67054;SHT31;53960;51.826;5.850;2024-03-06T10:34:36;9.14;96.45
67054;SHT31;53960;51.826;5.850;2024-03-06T10:37:02;8.99;96.70
67054;SHT31;53960;51.826;5.850;2024-03-06T10:39:33;8.91;96.59
67054;SHT31;53960;51.826;5.850;2024-03-06T10:42:02;8.65;97.35
67054;SHT31;53960;51.826;5.850;2024-03-06T10:44:27;8.57;97.47
67054;SHT31;53960;51.826;5.850;2024-03-06T10:47:05;8.48;98.04
67054;SHT31;53960;51.826;5.850;2024-03-06T10:49:31;8.50;98.03
67054;SHT31;53960;51.826;5.850;2024-03-06T10:52:04;8.41;98.27
67054;SHT31;53960;51.826;5.850;2024-03-06T10:54:32;8.51;98.11
67054;SHT31;53960;51.826;5.850;2024-03-06T10:57:00;8.44;98.49
67054;SHT31;53960;51.826;5.850;2024-03-06T10:59:26;8.53;98.48
67054;SHT31;53960;51.826;5.850;2024-03-06T11:01:56;8.57;98.40
67054;SHT31;53960;51.826;5.850;2024-03-06T11:04:29;8.57;98.43
67054;SHT31;53960;51.826;5.850;2024-03-06T11:06:58;8.47;98.46
67054;SHT31;53960;51.826;5.850;2024-03-06T11:09:28;8.36;98.68
67054;SHT31;53960;51.826;5.850;2024-03-06T11:11:54;8.38;98.80
67054;SHT31;53960;51.826;5.850;2024-03-06T11:14:21;8.33;98.88
67054;SHT31;53960;51.826;5.850;2024-03-06T11:17:02;8.30;98.94
67054;SHT31;53960;51.826;5.850;2024-03-06T11:19:29;8.34;98.86
67054;SHT31;53960;51.826;5.850;2024-03-06T11:21:55;8.36;98.84
67054;SHT31;53960;51.826;5.850;2024-03-06T11:24:22;8.38;98.93
67054;SHT31;53960;51.826;5.850;2024-03-06T11:26:49;8.50;98.72
67054;SHT31;53960;51.826;5.850;2024-03-06T11:29:17;8.54;98.71
67054;SHT31;53960;51.826;5.850;2024-03-06T11:32:00;8.60;98.60
67054;SHT31;53960;51.826;5.850;2024-03-06T11:34:26;8.67;98.44
67054;SHT31;53960;51.826;5.850;2024-03-06T11:36:56;8.79;98.16
67054;SHT31;53960;51.826;5.850;2024-03-06T11:39:22;8.82;98.07
67054;SHT31;53960;51.826;5.850;2024-03-06T11:41:49;8.86;97.86
67054;SHT31;53960;51.826;5.850;2024-03-06T11:44:16;8.95;97.71
67054;SHT31;53960;51.826;5.850;2024-03-06T11:46:58;9.04;97.70
67054;SHT31;53960;51.826;5.850;2024-03-06T11:49:25;8.99;97.41
67054;SHT31;53960;51.826;5.850;2024-03-06T11:51:52;8.95;97.57
67054;SHT31;53960;51.826;5.850;2024-03-06T11:54:17;8.91;97.59
67054;SHT31;53960;51.826;5.850;2024-03-06T11:56:54;8.92;97.70
67054;SHT31;53960;51.826;5.850;2024-03-06T11:59:22;8.92;97.72
67054;SHT31;53960;51.826;5.850;2024-03-06T12:01:49;8.93;97.44
67054;SHT31;53960;51.826;5.850;2024-03-06T12:04:14;8.96;97.47
67054;SHT31;53960;51.826;5.850;2024-03-06T12:06:39;8.96;97.50
67054;SHT31;53960;51.826;5.850;2024-03-06T12:09:05;8.96;97.64
67054;SHT31;53960;51.826;5.850;2024-03-06T12:11:30;8.99;97.68
67054;SHT31;53960;51.826;5.850;2024-03-06T12:13:56;8.98;97.55
67054;SHT31;53960;51.826;5.850;2024-03-06T12:16:22;8.99;97.57
67054;SHT31;53960;51.826;5.850;2024-03-06T12:18:54;9.04;97.53
67054;SHT31;53960;51.826;5.850;2024-03-06T12:21:20;9.02;97.40
67054;SHT31;53960;51.826;5.850;2024-03-06T12:23:47;8.99;97.50
67054;SHT31;53960;51.826;5.850;2024-03-06T12:26:13;8.99;97.59
67054;SHT31;53960;51.826;5.850;2024-03-06T12:28:39;9.02;97.59
67054;SHT31;53960;51.826;5.850;2024-03-06T12:31:05;9.01;97.43
67054;SHT31;53960;51.826;5.850;2024-03-06T12:33:31;8.99;97.50
67054;SHT31;53960;51.826;5.850;2024-03-06T12:36:01;9.06;97.54
67054;SHT31;53960;51.826;5.850;2024-03-06T12:38:28;9.20;97.31
67054;SHT31;53960;51.826;5.850;2024-03-06T12:40:54;9.22;97.18
67054;SHT31;53960;51.826;5.850;2024-03-06T12:43:20;9.25;97.03
67054;SHT31;53960;51.826;5.850;2024-03-06T12:45:45;9.23;97.21
67054;SHT31;53960;51.826;5.850;2024-03-06T12:48:10;9.39;96.89
67054;SHT31;53960;51.826;5.850;2024-03-06T12:50:37;9.44;96.39
67054;SHT31;53960;51.826;5.850;2024-03-06T12:53:03;9.42;96.21
67054;SHT31;53960;51.826;5.850;2024-03-06T12:55:30;9.42;96.29
67054;SHT31;53960;51.826;5.850;2024-03-06T12:57:56;9.40;96.41
67054;SHT31;53960;51.826;5.850;2024-03-06T13:00:22;9.35;96.49
67054;SHT31;53960;51.826;5.850;2024-03-06T13:02:47;9.37;96.46
67054;SHT31;53960;51.826;5.850;2024-03-06T13:05:15;9.32;96.50
67054;SHT31;53960;51.826;5.850;2024-03-06T13:07:42;9.32;96.44
67054;SHT31;53960;51.826;5.850;2024-03-06T13:10:08;9.32;96.62
67054;SHT31;53960;51.826;5.850;2024-03-06T13:12:36;9.36;96.54
67054;SHT31;53960;51.826;5.850;2024-03-06T13:15:01;9.32;96.67
67054;SHT31;53960;51.826;5.850;2024-03-06T13:17:26;9.36;96.53
67054;SHT31;53960;51.826;5.850;2024-03-06T13:19:54;9.32;96.34
67054;SHT31;53960;51.826;5.850;2024-03-06T13:22:19;9.35;96.26
67054;SHT31;53960;51.826;5.850;2024-03-06T13:24:44;9.32;96.46
67054;SHT31;53960;51.826;5.850;2024-03-06T13:27:10;9.32;96.38
67054;SHT31;53960;51.826;5.850;2024-03-06T13:29:35;9.35;96.31
67054;SHT31;53960;51.826;5.850;2024-03-06T13:32:00;9.39;96.40
67054;SHT31;53960;51.826;5.850;2024-03-06T13:34:26;9.39;96.24
67054;SHT31;53960;51.826;5.850;2024-03-06T13:36:51;9.37;96.35
67054;SHT31;53960;51.826;5.850;2024-03-06T13:39:16;9.43;96.10
67054;SHT31;53960;51.826;5.850;2024-03-06T13:41:42;9.40;96.01
67054;SHT31;53960;51.826;5.850;2024-03-06T13:44:07;9.39;95.76
67054;SHT31;53960;51.826;5.850;2024-03-06T13:46:33;9.43;95.82
67054;SHT31;53960;51.826;5.850;2024-03-06T13:48:58;9.40;95.75
67054;SHT31;53960;51.826;5.850;2024-03-06T13:51:25;9.39;95.76
67054;SHT31;53960;51.826;5.850;2024-03-06T13:53:50;9.40;95.78
67054;SHT31;53960;51.826;5.850;2024-03-06T13:56:16;9.40;95.82
67054;SHT31;53960;51.826;5.850;2024-03-06T13:58:41;9.37;95.94
67054;SHT31;53960;51.826;5.850;2024-03-06T14:01:07;9.39;95.96
67054;SHT31;53960;51.826;5.850;2024-03-06T14:03:32;9.39;95.40
67054;SHT31;53960;51.826;5.850;2024-03-06T14:05:59;9.43;95.31
67054;SHT31;53960;51.826;5.850;2024-03-06T14:08:25;9.46;95.05
67054;SHT31;53960;51.826;5.850;2024-03-06T14:10:51;9.53;94.93
67054;SHT31;53960;51.826;5.850;2024-03-06T14:13:16;9.53;94.96
67054;SHT31;53960;51.826;5.850;2024-03-06T14:15:41;9.57;94.80
67054;SHT31;53960;51.826;5.850;2024-03-06T14:18:07;9.67;94.87
67054;SHT31;53960;51.826;5.850;2024-03-06T14:20:32;9.90;93.51
67054;SHT31;53960;51.826;5.850;2024-03-06T14:22:58;10.09;92.90
67054;SHT31;53960;51.826;5.850;2024-03-06T14:25:23;10.14;92.64
67054;SHT31;53960;51.826;5.850;2024-03-06T14:27:48;10.24;91.79
67054;SHT31;53960;51.826;5.850;2024-03-06T14:30:14;10.49;90.76
67054;SHT31;53960;51.826;5.850;2024-03-06T14:32:40;10.63;89.41
67054;SHT31;53960;51.826;5.850;2024-03-06T14:35:06;10.74;89.31
67054;SHT31;53960;51.826;5.850;2024-03-06T14:37:31;10.87;89.77
67054;SHT31;53960;51.826;5.850;2024-03-06T14:39:57;10.69;87.40
67054;SHT31;53960;51.826;5.850;2024-03-06T14:42:22;10.62;88.29
67054;SHT31;53960;51.826;5.850;2024-03-06T14:44:48;10.49;89.37
67054;SHT31;53960;51.826;5.850;2024-03-06T14:47:13;10.48;89.19
67054;SHT31;53960;51.826;5.850;2024-03-06T14:49:42;10.60;88.06
67054;SHT31;53960;51.826;5.850;2024-03-06T14:52:12;10.69;87.89
67054;SHT31;53960;51.826;5.850;2024-03-06T14:54:38;10.70;86.01
67054;SHT31;53960;51.826;5.850;2024-03-06T14:57:05;10.77;83.24
67054;SHT31;53960;51.826;5.850;2024-03-06T14:59:31;10.89;83.62
67054;SHT31;53960;51.826;5.850;2024-03-06T15:01:56;10.90;84.03
67054;SHT31;53960;51.826;5.850;2024-03-06T15:04:21;10.92;84.24
67054;SHT31;53960;51.826;5.850;2024-03-06T15:06:47;11.00;84.04
67054;SHT31;53960;51.826;5.850;2024-03-06T15:09:12;11.00;84.17
67054;SHT31;53960;51.826;5.850;2024-03-06T15:11:41;11.00;83.08
67054;SHT31;53960;51.826;5.850;2024-03-06T15:14:07;10.99;83.19
67054;SHT31;53960;51.826;5.850;2024-03-06T15:16:33;10.97;82.63
67054;SHT31;53960;51.826;5.850;2024-03-06T15:18:58;10.96;82.52
67054;SHT31;53960;51.826;5.850;2024-03-06T15:21:24;10.96;82.89
67054;SHT31;53960;51.826;5.850;2024-03-06T15:23:49;10.93;82.31
67054;SHT31;53960;51.826;5.850;2024-03-06T15:26:19;10.99;82.13
67054;SHT31;53960;51.826;5.850;2024-03-06T15:28:44;11.00;82.69
67054;SHT31;53960;51.826;5.850;2024-03-06T15:31:10;10.96;83.07
67054;SHT31;53960;51.826;5.850;2024-03-06T15:33:35;10.93;83.49
67054;SHT31;53960;51.826;5.850;2024-03-06T15:36:02;10.90;83.32
67054;SHT31;53960;51.826;5.850;2024-03-06T15:38:27;10.85;82.67